Time;durP1;ratioP1;P1;durP2;ratioP2;P2;SDS_P1;SDS_P2;PMS_P1;PMS_P2;Temp;Humidity;BMP_temperature;BMP_pressure;BME280_temperature;BME280_humidity;BME280_pressure;Samples;Min_cycle;Max_cycle;Signal;HPM_P1;HPM_P2
2022/08/01 00:02:37;;;;;;;4.22;2.60;;;;;;;18.83;55.12;100247.11;1709664;84;21224;-57
2022/08/01 00:05:44;;;;;;;4.15;2.00;;;;;;;18.80;55.14;100246.19;1709653;84;21208;-57
2022/08/01 00:08:50;;;;;;;4.90;2.05;;;;;;;18.80;55.23;100246.19;1709684;84;21220;-57
2022/08/01 00:11:56;;;;;;;3.83;2.10;;;;;;;18.80;55.28;100253.65;1709765;84;21240;-58
2022/08/01 00:15:02;;;;;;;3.22;1.90;;;;;;;18.80;55.37;100250.34;1709639;84;21224;-56
2022/08/01 00:18:09;;;;;;;2.80;2.00;;;;;;;18.82;55.44;100250.94;1694546;84;21272;-56
2022/08/01 00:21:15;;;;;;;2.55;1.70;;;;;;;18.81;55.44;100250.64;1700867;83;21217;-58
2022/08/01 00:24:22;;;;;;;3.77;2.15;;;;;;;18.82;55.47;100253.71;1695616;84;21762;-56
2022/08/01 00:27:31;;;;;;;4.28;1.82;;;;;;;18.83;55.51;100252.66;1709474;84;21232;-56
2022/08/01 00:30:39;;;;;;;2.20;1.70;;;;;;;18.83;55.53;100259.59;1709635;84;21254;-56
2022/08/01 00:33:44;;;;;;;6.17;1.90;;;;;;;18.85;55.55;100258.80;1709634;84;21204;-57
2022/08/01 00:36:51;;;;;;;7.50;2.17;;;;;;;18.86;55.57;100263.28;1709698;84;21216;-56
2022/08/01 00:39:58;;;;;;;4.42;1.80;;;;;;;18.87;55.58;100259.41;1709718;84;21209;-57
2022/08/01 00:43:04;;;;;;;4.17;1.70;;;;;;;18.87;55.60;100262.72;1709618;84;21275;-56
2022/08/01 00:46:13;;;;;;;2.72;1.80;;;;;;;18.87;55.60;100253.87;1709660;84;21387;-56
2022/08/01 00:49:18;;;;;;;5.58;2.05;;;;;;;18.86;55.60;100257.73;1709613;84;21256;-58
2022/08/01 00:52:24;;;;;;;3.87;1.80;;;;;;;18.86;55.61;100257.73;1709668;84;21232;-56
2022/08/01 00:55:30;;;;;;;3.50;1.70;;;;;;;18.84;55.62;100248.78;1702853;83;21201;-57
2022/08/01 00:58:36;;;;;;;5.80;2.35;;;;;;;18.82;55.61;100245.39;1702081;84;21233;-56
2022/08/01 01:01:44;;;;;;;2.45;1.65;;;;;;;18.79;55.66;100242.26;1702404;84;21272;-56
2022/08/01 01:04:52;;;;;;;5.60;1.95;;;;;;;18.78;55.68;100248.87;1702167;84;21244;-56
2022/08/01 01:08:11;;;;;;;5.20;1.87;;;;;;;18.75;55.69;100244.64;1702106;84;21745;-57
2022/08/01 01:11:25;;;;;;;5.95;2.05;;;;;;;18.73;55.73;100236.23;1702121;84;21213;-58
2022/08/01 01:15:04;;;;;;;2.70;1.70;;;;;;;18.75;55.80;100240.48;1702079;84;21193;-56
2022/08/01 01:18:19;;;;;;;5.10;1.87;;;;;;;18.75;55.83;100235.47;1699636;84;21235;-56
2022/08/01 01:21:29;;;;;;;5.03;1.80;;;;;;;18.75;55.83;100229.92;1700043;84;21213;-55
2022/08/01 01:24:43;;;;;;;6.58;1.85;;;;;;;18.75;55.89;100232.69;1712672;84;21208;-56
2022/08/01 01:28:12;;;;;;;2.95;1.75;;;;;;;18.78;55.90;100237.23;1712697;83;21563;-56
2022/08/01 01:31:21;;;;;;;5.05;1.80;;;;;;;18.80;55.96;100237.86;1702754;84;21241;-56
2022/08/01 01:34:29;;;;;;;3.65;1.50;;;;;;;18.81;55.98;100224.29;1709624;84;21285;-57
2022/08/01 01:37:36;;;;;;;2.85;1.80;;;;;;;18.81;55.97;100229.84;1702896;84;21235;-58
2022/08/01 01:40:44;;;;;;;5.75;2.00;;;;;;;18.81;55.98;100235.91;1702753;83;21189;-58
2022/08/01 01:43:50;;;;;;;3.70;1.70;;;;;;;18.82;56.04;100237.63;1694357;84;21177;-58
2022/08/01 01:46:50;;;;;;;4.90;1.80;;;;;;;18.82;56.03;100235.68;1702002;84;21212;-56
2022/08/01 01:49:56;;;;;;;5.97;2.00;;;;;;;18.82;56.05;100242.61;1709693;84;21203;-56
2022/08/01 01:53:02;;;;;;;6.67;1.70;;;;;;;18.83;56.04;100243.47;1709631;84;21228;-58
2022/08/01 01:56:10;;;;;;;5.50;1.77;;;;;;;18.84;56.08;100250.70;1707769;84;21384;-57
2022/08/01 01:59:14;;;;;;;5.20;1.67;;;;;;;18.85;56.13;100262.12;1709602;84;21232;-57
2022/08/01 02:02:22;;;;;;;3.70;2.20;;;;;;;18.86;56.13;100274.37;1709624;84;21317;-57
2022/08/01 02:05:29;;;;;;;5.95;1.70;;;;;;;18.86;56.10;100264.66;1709646;84;21200;-57
2022/08/01 02:08:36;;;;;;;3.85;1.70;;;;;;;18.85;56.08;100258.80;1709206;84;21232;-57
2022/08/01 02:11:44;;;;;;;3.22;1.62;;;;;;;18.86;56.12;100253.57;1709378;84;21537;-56
2022/08/01 02:14:53;;;;;;;5.20;2.02;;;;;;;18.88;56.18;100250.03;1684420;84;21197;-57
2022/08/01 02:17:58;;;;;;;3.75;1.75;;;;;;;18.92;56.29;100258.71;1684493;84;21237;-58
2022/08/01 02:21:03;;;;;;;2.77;1.70;;;;;;;18.97;56.33;100254.17;1679536;84;21177;-57
2022/08/01 02:24:15;;;;;;;2.98;1.52;;;;;;;19.03;56.37;100257.40;1665332;85;21212;-57
2022/08/01 02:27:33;;;;;;;3.12;1.90;;;;;;;19.09;56.37;100259.23;1679054;84;21189;-57
2022/08/01 02:30:42;;;;;;;2.98;1.85;;;;;;;19.13;56.37;100268.80;1682984;85;21248;-58
2022/08/01 02:33:52;;;;;;;4.72;1.90;;;;;;;19.17;56.32;100268.63;1656159;85;21201;-57
2022/08/01 02:36:59;;;;;;;2.87;1.80;;;;;;;19.19;56.29;100266.47;1682781;84;21237;-57
2022/08/01 02:40:05;;;;;;;2.87;1.75;;;;;;;19.21;56.29;100269.86;1682863;85;21252;-57
2022/08/01 02:43:11;;;;;;;4.97;1.60;;;;;;;19.22;56.28;100255.42;1682848;84;21272;-56
2022/08/01 02:46:20;;;;;;;5.72;1.70;;;;;;;19.22;56.27;100249.34;1682888;85;21212;-56
2022/08/01 02:49:27;;;;;;;3.65;1.82;;;;;;;19.23;56.27;100248.81;1657404;85;21256;-57
2022/08/01 02:52:35;;;;;;;3.35;1.75;;;;;;;19.24;56.27;100249.11;1657892;85;21233;-57
2022/08/01 02:55:41;;;;;;;2.83;1.70;;;;;;;19.24;56.30;100247.72;1657655;85;21244;-56
2022/08/01 02:58:48;;;;;;;9.30;1.72;;;;;;;19.23;56.32;100241.31;1652286;87;21208;-58
2022/08/01 03:01:55;;;;;;;5.35;2.00;;;;;;;19.24;56.35;100247.72;1652775;86;21229;-57
2022/08/01 03:05:02;;;;;;;5.78;2.30;;;;;;;19.27;56.41;100237.00;1653145;87;21240;-58
2022/08/01 03:08:09;;;;;;;8.73;2.37;;;;;;;19.31;56.43;100234.07;1653161;86;21236;-57
2022/08/01 03:11:16;;;;;;;5.85;2.12;;;;;;;19.32;56.41;100229.38;1652052;87;21577;-57
2022/08/01 03:14:24;;;;;;;4.65;2.20;;;;;;;19.34;56.45;100234.98;1652337;87;21228;-57
2022/08/01 03:17:31;;;;;;;5.55;2.75;;;;;;;19.37;56.50;100239.23;1652919;86;21268;-57
2022/08/01 03:20:39;;;;;;;3.50;2.17;;;;;;;19.41;56.57;100236.84;1652605;87;21216;-57
2022/08/01 03:23:46;;;;;;;6.25;2.27;;;;;;;19.43;56.57;100243.84;1653231;86;21305;-57
2022/08/01 03:26:53;;;;;;;5.72;2.35;;;;;;;19.41;56.65;100246.56;1652306;86;21248;-56
2022/08/01 03:29:59;;;;;;;3.72;2.30;;;;;;;19.39;56.69;100257.05;1652796;87;21212;-57
2022/08/01 03:33:06;;;;;;;4.12;2.17;;;;;;;19.33;56.74;100259.38;1652774;86;21268;-57
2022/08/01 03:36:13;;;;;;;11.75;2.37;;;;;;;19.28;56.84;100280.91;1648964;87;21268;-56
2022/08/01 03:39:19;;;;;;;5.62;2.50;;;;;;;19.22;56.90;100295.67;1652717;87;21239;-56
2022/08/01 03:42:30;;;;;;;5.40;2.40;;;;;;;19.15;57.00;100311.02;1652512;86;21272;-55
2022/08/01 03:45:46;;;;;;;9.70;2.72;;;;;;;19.10;57.14;100319.75;1653903;86;21240;-56
2022/08/01 03:48:55;;;;;;;6.03;2.60;;;;;;;19.02;57.29;100313.98;1653285;86;21224;-57
2022/08/01 03:52:02;;;;;;;7.58;2.65;;;;;;;18.97;57.37;100322.15;1652713;86;21248;-57
2022/08/01 03:55:12;;;;;;;4.30;2.50;;;;;;;18.93;57.44;100322.29;1628423;87;21220;-57
2022/08/01 03:58:17;;;;;;;6.75;2.92;;;;;;;18.90;57.46;100324.14;1663018;84;21321;-55
2022/08/01 04:01:24;;;;;;;5.60;3.08;;;;;;;18.85;57.49;100312.06;1682995;84;21210;-57
2022/08/01 04:04:31;;;;;;;6.37;2.92;;;;;;;18.75;57.56;100290.41;1683034;85;21220;-57
2022/08/01 04:07:40;;;;;;;4.85;2.90;;;;;;;18.67;57.73;100292.09;1682929;84;21268;-57
2022/08/01 04:10:47;;;;;;;7.37;3.02;;;;;;;18.66;57.95;100286.78;1653135;85;21208;-57
2022/08/01 04:13:55;;;;;;;3.65;2.58;;;;;;;18.66;58.15;100299.26;1642857;86;21276;-57
2022/08/01 04:17:04;;;;;;;6.95;2.80;;;;;;;18.66;58.29;100303.42;1683254;84;21454;-56
2022/08/01 04:20:10;;;;;;;8.73;3.30;;;;;;;18.69;58.40;100294.64;1682966;85;21200;-56
2022/08/01 04:23:17;;;;;;;4.22;2.67;;;;;;;18.70;58.47;100280.54;1662036;85;21218;-55
2022/08/01 04:26:24;;;;;;;6.58;3.15;;;;;;;18.68;58.54;100278.53;1661460;85;21237;-57
2022/08/01 04:29:32;;;;;;;5.67;3.10;;;;;;;18.66;58.58;100267.37;1656576;86;21766;-54
2022/08/01 04:32:45;;;;;;;10.28;3.58;;;;;;;18.64;58.72;100270.38;1648139;86;21228;-56
2022/08/01 04:35:53;;;;;;;6.83;2.58;;;;;;;18.64;58.83;100278.70;1657863;85;21186;-57
2022/08/01 04:39:09;;;;;;;4.65;2.70;;;;;;;18.63;58.92;100267.27;1649643;87;21545;-56
2022/08/01 04:42:13;;;;;;;7.22;3.25;;;;;;;18.62;59.02;100268.89;1649612;87;21202;-57
2022/08/01 04:45:21;;;;;;;4.60;2.83;;;;;;;18.60;59.08;100259.98;1648381;87;21214;-55
2022/08/01 04:48:29;;;;;;;5.03;3.02;;;;;;;18.55;59.17;100264.80;1649185;87;21269;-56
2022/08/01 04:51:36;;;;;;;4.35;3.27;;;;;;;18.56;59.30;100273.45;1649198;87;21182;-57
2022/08/01 04:54:46;;;;;;;4.65;2.85;;;;;;;18.54;59.41;100263.13;1652582;86;21253;-57
2022/08/01 04:57:54;;;;;;;4.20;2.80;;;;;;;18.56;59.60;100258.20;1646449;86;21339;-59
2022/08/01 05:01:05;;;;;;;3.98;3.20;;;;;;;18.59;59.77;100268.83;1642298;85;21711;-57
2022/08/01 05:04:13;;;;;;;3.95;3.42;;;;;;;18.65;59.92;100283.68;1686232;84;21587;-56
2022/08/01 05:07:21;;;;;;;5.67;3.30;;;;;;;18.65;60.02;100276.75;1674312;85;21400;-57
2022/08/01 05:10:27;;;;;;;5.85;3.47;;;;;;;18.66;60.12;100268.20;1656859;84;21286;-54
2022/08/01 05:13:36;;;;;;;6.45;3.12;;;;;;;18.67;60.20;100249.11;1702743;84;21289;-57
2022/08/01 05:16:43;;;;;;;5.70;2.77;;;;;;;18.70;60.36;100234.78;1700892;83;21222;-57
2022/08/01 05:19:50;;;;;;;5.45;3.00;;;;;;;18.78;60.56;100219.74;1675119;85;21728;-56
2022/08/01 05:22:57;;;;;;;8.88;3.42;;;;;;;18.83;60.66;100208.27;1675091;85;21616;-55
2022/08/01 05:26:04;;;;;;;5.83;3.87;;;;;;;18.89;60.75;100205.95;1674517;84;21234;-55
2022/08/01 05:29:13;;;;;;;6.78;3.20;;;;;;;18.97;60.85;100209.78;1674504;84;21286;-56
2022/08/01 05:32:20;;;;;;;5.10;3.25;;;;;;;19.03;60.98;100212.14;1698101;84;21254;-56
2022/08/01 05:35:27;;;;;;;3.33;2.85;;;;;;;19.14;61.09;100225.22;1691784;84;21258;-56
2022/08/01 05:38:35;;;;;;;5.22;3.05;;;;;;;19.24;61.16;100226.90;1690969;83;21290;-58
2022/08/01 05:41:42;;;;;;;5.97;3.65;;;;;;;19.33;61.27;100216.35;1687198;84;21272;-58
2022/08/01 05:44:50;;;;;;;4.53;3.58;;;;;;;19.41;61.35;100214.63;1658148;85;21232;-57
2022/08/01 05:47:57;;;;;;;5.55;3.47;;;;;;;19.43;61.30;100199.41;1676442;85;21283;-56
2022/08/01 05:51:04;;;;;;;7.50;3.67;;;;;;;19.45;61.42;100203.34;1645616;86;21268;-57
2022/08/01 05:54:11;;;;;;;7.17;3.30;;;;;;;19.54;61.65;100204.68;1665903;86;21249;-55
2022/08/01 05:57:19;;;;;;;5.65;3.20;;;;;;;19.66;61.78;100205.57;1643952;87;21261;-54
2022/08/01 06:00:27;;;;;;;6.58;3.10;;;;;;;19.75;61.75;100209.68;1619542;85;21316;-56
2022/08/01 06:03:33;;;;;;;5.22;3.20;;;;;;;19.86;61.91;100204.14;1631242;85;21240;-55
2022/08/01 06:06:40;;;;;;;4.53;3.20;;;;;;;19.98;61.99;100205.55;1649145;85;21817;-54
2022/08/01 06:09:48;;;;;;;5.15;3.20;;;;;;;20.01;61.96;100203.68;1710820;84;21194;-54
2022/08/01 06:12:53;;;;;;;4.08;3.40;;;;;;;20.05;62.03;100207.65;1710126;83;21313;-54
2022/08/01 06:16:00;;;;;;;4.62;3.35;;;;;;;20.11;62.12;100210.84;1695132;84;21293;-55
2022/08/01 06:19:06;;;;;;;5.62;3.30;;;;;;;20.13;62.10;100211.45;1681737;85;21240;-55
2022/08/01 06:22:22;;;;;;;5.47;4.08;;;;;;;20.21;62.25;100223.64;1679672;85;21244;-54
2022/08/01 06:26:01;;;;;;;3.95;2.92;;;;;;;20.33;62.38;100231.42;1646476;83;21261;-56
2022/08/01 06:29:08;;;;;;;4.95;3.92;;;;;;;20.46;62.46;100244.55;1701639;84;21218;-56
2022/08/01 06:32:14;;;;;;;7.58;3.65;;;;;;;20.51;62.44;100239.10;1672056;85;21286;-56
2022/08/01 06:35:22;;;;;;;4.62;3.40;;;;;;;20.56;62.43;100235.58;1679360;85;21270;-56
2022/08/01 06:38:28;;;;;;;7.55;3.55;;;;;;;20.59;62.47;100240.66;1686425;83;21288;-56
2022/08/01 06:41:35;;;;;;;6.78;3.37;;;;;;;20.66;62.54;100223.30;1709643;83;21224;-55
2022/08/01 06:44:45;;;;;;;6.22;3.37;;;;;;;20.70;62.56;100233.69;1689195;84;21213;-55
2022/08/01 06:47:51;;;;;;;6.92;3.70;;;;;;;20.76;62.65;100227.67;1702609;83;21242;-56
2022/08/01 06:51:13;;;;;;;7.70;3.70;;;;;;;20.77;62.54;100216.86;1702154;83;21239;-57
2022/08/01 06:54:17;;;;;;;5.35;3.37;;;;;;;20.80;62.66;100213.58;1672094;86;21319;-58
2022/08/01 06:57:22;;;;;;;4.50;3.50;;;;;;;20.88;62.67;100211.81;1687248;84;21235;-55
2022/08/01 07:00:32;;;;;;;5.37;3.35;;;;;;;20.87;62.62;100217.05;1672909;84;21377;-56
2022/08/01 07:03:40;;;;;;;6.67;3.87;;;;;;;20.90;62.68;100230.47;1642255;86;21237;-55
2022/08/01 07:06:48;;;;;;;7.42;3.92;;;;;;;20.89;62.66;100230.19;1644008;86;21493;-54
2022/08/01 07:09:54;;;;;;;9.85;3.65;;;;;;;20.90;62.69;100224.91;1644431;87;21280;-55
2022/08/01 07:13:00;;;;;;;9.73;3.95;;;;;;;20.83;62.55;100230.61;1627479;87;21810;-55
2022/08/01 07:16:07;;;;;;;6.80;4.03;;;;;;;20.75;62.67;100224.06;1641198;86;21224;-55
2022/08/01 07:19:17;;;;;;;9.13;3.75;;;;;;;20.72;62.79;100234.83;1640732;86;21214;-56
2022/08/01 07:22:24;;;;;;;7.87;4.03;;;;;;;20.72;62.99;100237.61;1649297;85;21237;-55
2022/08/01 07:25:34;;;;;;;4.97;3.52;;;;;;;20.74;63.12;100254.34;1662825;86;21236;-56
2022/08/01 07:28:41;;;;;;;5.42;3.98;;;;;;;20.73;63.08;100267.12;1649815;87;21244;-56
2022/08/01 07:31:46;;;;;;;4.92;3.60;;;;;;;20.71;63.17;100259.55;1649905;87;21213;-56
2022/08/01 07:34:52;;;;;;;5.15;4.12;;;;;;;20.70;63.29;100248.99;1632651;86;21419;-57
2022/08/01 07:38:01;;;;;;;6.72;4.50;;;;;;;20.74;63.37;100257.67;1648021;87;21423;-54
2022/08/01 07:41:10;;;;;;;8.20;4.42;;;;;;;20.73;63.41;100261.55;1648242;87;21209;-55
2022/08/01 07:44:20;;;;;;;8.68;4.55;;;;;;;20.73;63.48;100261.55;1648017;87;21217;-55
2022/08/01 07:47:35;;;;;;;7.87;4.75;;;;;;;20.68;63.39;100265.08;1644600;87;21762;-55
2022/08/01 07:50:42;;;;;;;7.65;4.87;;;;;;;20.65;63.47;100262.78;1643515;87;21289;-54
2022/08/01 07:53:48;;;;;;;7.75;5.33;;;;;;;20.59;63.50;100255.42;1644125;85;21297;-55
2022/08/01 07:56:53;;;;;;;9.50;4.80;;;;;;;20.59;63.65;100260.13;1666686;85;21237;-55
2022/08/01 08:00:00;;;;;;;7.53;5.58;;;;;;;20.55;63.65;100246.42;1666560;85;21253;-55
2022/08/01 08:03:04;;;;;;;6.55;4.50;;;;;;;20.53;63.77;100241.07;1676601;84;21296;-56
2022/08/01 08:06:25;;;;;;;9.53;4.78;;;;;;;20.53;63.86;100241.07;1707217;84;21865;-55
2022/08/01 08:09:30;;;;;;;6.08;4.53;;;;;;;20.51;63.90;100238.24;1706499;84;22179;-55
2022/08/01 08:12:36;;;;;;;7.83;4.70;;;;;;;20.51;64.00;100243.81;1706572;84;22189;-55
2022/08/01 08:15:43;;;;;;;6.40;4.92;;;;;;;20.46;63.98;100246.47;1697236;83;21224;-55
2022/08/01 08:18:49;;;;;;;7.22;5.20;;;;;;;20.41;64.03;100249.12;1709778;83;21217;-55
2022/08/01 08:21:55;;;;;;;8.60;5.00;;;;;;;20.33;64.11;100247.57;1717539;83;21528;-55
2022/08/01 08:25:00;;;;;;;9.13;4.60;;;;;;;20.30;64.27;100242.49;1715421;83;21802;-54
2022/08/01 08:28:06;;;;;;;8.40;5.28;;;;;;;20.28;64.40;100242.45;1688870;85;21731;-55
2022/08/01 08:31:14;;;;;;;7.33;5.35;;;;;;;20.25;64.47;100242.37;1661152;86;21747;-55
2022/08/01 08:34:23;;;;;;;7.35;5.42;;;;;;;20.23;64.54;100235.38;1661116;86;21345;-55
2022/08/01 08:37:32;;;;;;;8.03;5.70;;;;;;;20.16;64.58;100224.91;1661454;85;21285;-55
2022/08/01 08:40:39;;;;;;;9.25;6.00;;;;;;;20.08;64.59;100221.92;1673028;83;21756;-55
2022/08/01 08:43:45;;;;;;;11.48;5.92;;;;;;;19.98;64.66;100215.28;1661908;86;21218;-55
2022/08/01 08:46:57;;;;;;;8.00;5.78;;;;;;;19.88;64.76;100203.37;1692451;83;21220;-55
2022/08/01 08:50:05;;;;;;;9.43;5.47;;;;;;;19.84;64.92;100189.64;1661331;86;21269;-55
2022/08/01 08:53:13;;;;;;;11.80;5.70;;;;;;;19.79;65.06;100183.13;1661442;86;21285;-54
2022/08/01 08:56:20;;;;;;;10.10;6.28;;;;;;;19.74;65.18;100177.44;1661088;86;21787;-54
2022/08/01 08:59:26;;;;;;;8.05;5.55;;;;;;;19.72;65.40;100174.05;1631204;87;21631;-54
2022/08/01 09:06:03;;;;;;;8.30;5.90;;;;;;;19.78;65.74;100174.47;1612627;87;21242;-54
2022/08/01 09:09:09;;;;;;;8.23;5.65;;;;;;;19.88;65.86;100174.73;1641911;86;21216;-55
2022/08/01 09:12:15;;;;;;;10.82;6.12;;;;;;;19.95;65.95;100175.44;1620467;88;21848;-56
2022/08/01 09:15:23;;;;;;;10.75;5.33;;;;;;;20.07;66.10;100179.94;1649454;87;21824;-54
2022/08/01 09:18:47;;;;;;;8.20;5.65;;;;;;;20.24;66.21;100181.45;1649254;86;21762;-54
2022/08/01 09:22:12;;;;;;;8.70;6.00;;;;;;;20.35;66.17;100170.86;1650302;87;21325;-56
2022/08/01 09:25:19;;;;;;;8.03;5.95;;;;;;;20.45;66.21;100181.68;1605755;86;21225;-56
2022/08/01 09:28:29;;;;;;;8.38;5.55;;;;;;;20.61;66.25;100189.80;1622192;88;21316;-55
2022/08/01 09:31:36;;;;;;;14.40;6.00;;;;;;;20.73;66.27;100192.00;1620942;87;21264;-56
2022/08/01 09:34:46;;;;;;;7.30;5.37;;;;;;;20.93;66.45;100195.76;1649632;86;21291;-56
2022/08/01 09:37:53;;;;;;;9.20;5.70;;;;;;;21.15;66.45;100209.31;1649991;87;21244;-56
2022/08/01 09:41:03;;;;;;;8.85;5.40;;;;;;;21.43;66.61;100210.14;1614840;87;21863;-56
2022/08/01 09:44:10;;;;;;;7.95;5.50;;;;;;;21.75;66.65;100214.11;1618290;86;21292;-54
2022/08/01 09:47:16;;;;;;;7.05;5.50;;;;;;;22.01;66.47;100205.05;1622847;86;21287;-54
2022/08/01 09:50:23;;;;;;;7.12;4.95;;;;;;;22.19;66.35;100206.19;1623448;88;21531;-54
2022/08/01 09:53:30;;;;;;;7.08;6.03;;;;;;;22.44;66.37;100207.67;1621938;86;21221;-55
2022/08/01 09:56:35;;;;;;;7.85;5.53;;;;;;;22.65;66.25;100205.47;1617250;88;21721;-55
2022/08/01 09:59:44;;;;;;;6.12;5.37;;;;;;;22.79;66.14;100199.78;1603714;88;21243;-55
2022/08/01 10:02:52;;;;;;;5.60;4.95;;;;;;;22.92;66.12;100195.21;1619322;88;21267;-55
2022/08/01 10:06:02;;;;;;;6.37;4.78;;;;;;;23.05;66.15;100176.66;1641030;86;21873;-56
2022/08/01 10:09:09;;;;;;;6.25;4.17;;;;;;;23.22;66.22;100174.07;1656664;85;21619;-56
2022/08/01 10:12:18;;;;;;;9.73;5.25;;;;;;;23.40;66.16;100182.67;1599584;88;21853;-56
2022/08/01 10:15:25;;;;;;;8.30;4.87;;;;;;;23.59;66.23;100195.98;1633463;85;21623;-57
2022/08/01 10:18:33;;;;;;;7.05;4.80;;;;;;;23.81;66.10;100193.66;1645811;86;21805;-56
2022/08/01 10:21:35;;;;;;;7.12;4.95;;;;;;;23.95;65.96;100197.15;1634009;85;21804;-56
2022/08/01 10:24:46;;;;;;;11.97;4.70;;;;;;;24.10;66.02;100201.48;1615830;88;21594;-55
2022/08/01 10:27:53;;;;;;;5.58;4.80;;;;;;;24.39;66.11;100213.16;1650466;86;21307;-56
2022/08/01 10:31:02;;;;;;;13.58;5.00;;;;;;;24.68;66.09;100214.49;1648755;86;21197;-56
2022/08/01 10:34:15;;;;;;;9.03;4.83;;;;;;;24.92;65.95;100212.93;1656262;85;21213;-56
2022/08/01 10:37:24;;;;;;;9.08;4.67;;;;;;;25.16;65.71;100214.16;1633686;85;21659;-55
2022/08/01 10:40:30;;;;;;;6.75;3.92;;;;;;;25.30;65.38;100217.27;1655230;86;21284;-56
2022/08/01 10:43:38;;;;;;;8.85;4.45;;;;;;;25.40;65.22;100222.94;1653423;86;21232;-56
2022/08/01 10:46:51;;;;;;;5.70;4.22;;;;;;;25.52;64.90;100227.72;1626572;88;21308;-56
2022/08/01 10:50:10;;;;;;;8.88;4.47;;;;;;;25.57;64.88;100227.73;1651176;86;21240;-56
2022/08/01 10:53:24;;;;;;;5.75;4.12;;;;;;;25.83;65.00;100222.45;1652510;85;21271;-54
2022/08/01 10:56:31;;;;;;;7.05;4.40;;;;;;;26.03;64.85;100228.09;1651270;85;21594;-56
2022/08/01 10:59:39;;;;;;;8.55;4.47;;;;;;;26.28;64.90;100228.93;1631301;86;21212;-55
2022/08/01 11:02:50;;;;;;;7.75;4.00;;;;;;;26.32;64.39;100223.02;1621683;87;21250;-54
2022/08/01 11:05:59;;;;;;;6.83;4.17;;;;;;;26.24;64.25;100227.80;1642839;85;21212;-54
2022/08/01 11:09:07;;;;;;;6.85;4.10;;;;;;;26.30;64.35;100232.86;1649578;84;21280;-55
2022/08/01 11:12:22;;;;;;;9.18;3.75;;;;;;;26.35;64.29;100230.05;1624181;88;21356;-54
2022/08/01 11:15:30;;;;;;;6.62;4.30;;;;;;;26.52;64.29;100225.52;1621546;87;21507;-54
2022/08/01 11:18:38;;;;;;;6.35;4.65;;;;;;;26.64;64.08;100223.26;1629910;86;21631;-54
2022/08/01 11:22:06;;;;;;;8.55;3.80;;;;;;;26.77;64.27;100225.48;1627455;86;21295;-54
2022/08/01 11:25:13;;;;;;;7.10;3.80;;;;;;;26.79;63.99;100231.66;1645946;86;21766;-56
2022/08/01 11:28:26;;;;;;;10.63;4.62;;;;;;;26.81;63.93;100224.64;1643087;86;21679;-55
2022/08/01 11:31:35;;;;;;;7.70;4.08;;;;;;;26.73;63.77;100237.88;1645318;85;21240;-55
2022/08/01 11:35:05;;;;;;;10.05;6.33;;;;;;;26.71;63.83;100254.71;1642516;87;21220;-54
2022/08/01 11:38:33;;;;;;;8.55;4.20;;;;;;;26.81;63.91;100252.74;1619563;86;21249;-55
2022/08/01 11:41:42;;;;;;;7.83;4.35;;;;;;;26.84;63.66;100250.77;1624640;86;21296;-54
2022/08/01 11:44:55;;;;;;;6.67;4.00;;;;;;;26.85;63.43;100249.63;1601505;87;21255;-55
2022/08/01 11:48:02;;;;;;;7.83;3.65;;;;;;;26.77;63.28;100243.19;1647761;86;21734;-53
2022/08/01 11:51:07;;;;;;;7.47;3.65;;;;;;;26.68;63.16;100247.71;1656942;85;21212;-55
2022/08/01 11:54:15;;;;;;;8.38;4.17;;;;;;;26.61;63.20;100247.12;1657041;85;21221;-54
2022/08/01 11:57:37;;;;;;;9.18;4.40;;;;;;;26.53;63.22;100254.71;1655992;85;21247;-55
2022/08/01 12:00:42;;;;;;;6.75;4.08;;;;;;;26.40;63.20;100253.33;1661344;85;21481;-57
2022/08/01 12:03:52;;;;;;;;;;;;;;;26.32;63.23;100253.08;1660105;85;21208;-54
2022/08/01 12:06:58;;;;;;;6.97;4.47;;;;;;;26.22;63.17;100255.33;1660573;85;20280;-54
2022/08/01 12:10:24;;;;;;;7.65;4.25;;;;;;;26.09;63.19;100251.67;1660756;86;21279;-54
2022/08/01 12:13:31;;;;;;;9.23;4.12;;;;;;;26.03;63.24;100260.37;1653768;85;21410;-54
2022/08/01 12:16:40;;;;;;;8.25;4.55;;;;;;;25.99;63.27;100263.44;1617973;87;21283;-55
2022/08/01 12:19:46;;;;;;;12.68;4.10;;;;;;;25.95;63.22;100251.06;1613061;87;21264;-55
2022/08/01 12:22:52;;;;;;;10.23;4.70;;;;;;;25.94;63.24;100256.41;1618700;87;21246;-54
2022/08/01 12:26:01;;;;;;;7.17;4.20;;;;;;;25.93;63.21;100251.35;1620435;87;21235;-55
2022/08/01 12:29:08;;;;;;;5.70;4.47;;;;;;;25.90;63.14;100248.25;1594349;88;21858;-55
2022/08/01 12:32:39;;;;;;;7.25;4.58;;;;;;;25.90;63.20;100250.51;1592451;88;21259;-55
2022/08/01 12:35:47;;;;;;;8.18;5.58;;;;;;;25.90;63.18;100251.91;1598158;88;21317;-55
2022/08/01 12:38:59;;;;;;;11.65;5.33;;;;;;;25.85;63.10;100247.70;1598576;90;21260;-55
2022/08/01 12:42:05;;;;;;;7.60;4.90;;;;;;;25.85;63.16;100244.03;1637715;86;21247;-55
2022/08/01 12:45:11;;;;;;;7.40;5.33;;;;;;;25.89;63.25;100242.38;1650587;85;21272;-53
2022/08/01 12:48:20;;;;;;;9.15;5.35;;;;;;;25.95;63.23;100226.67;1654411;85;21236;-54
2022/08/01 12:51:25;;;;;;;12.13;4.95;;;;;;;25.97;63.16;100224.98;1619034;87;21224;-54
2022/08/01 12:54:30;;;;;;;12.85;5.05;;;;;;;26.05;63.23;100218.84;1594818;90;21219;-55
2022/08/01 12:57:36;;;;;;;7.53;4.95;;;;;;;26.15;63.16;100225.28;1599327;86;21260;-54
2022/08/01 13:00:43;;;;;;;8.05;5.10;;;;;;;26.27;63.08;100216.58;1594051;90;21714;-54
2022/08/01 13:04:06;;;;;;;6.58;5.42;;;;;;;26.29;62.86;100211.54;1584007;89;21230;-54
2022/08/01 13:07:14;;;;;;;9.50;5.40;;;;;;;26.38;62.88;100207.02;1587862;89;21255;-54
2022/08/01 13:10:20;;;;;;;8.70;5.30;;;;;;;26.48;62.82;100207.83;1645561;85;21225;-55
2022/08/01 13:13:25;;;;;;;9.35;5.28;;;;;;;26.60;62.81;100208.09;1651039;85;21259;-54
2022/08/01 13:16:33;;;;;;;10.35;5.78;;;;;;;26.72;62.69;100212.30;1652788;85;21220;-54
2022/08/01 13:19:53;;;;;;;8.35;5.37;;;;;;;26.84;62.69;100204.41;1652479;85;21738;-54
2022/08/01 13:23:00;;;;;;;10.08;5.15;;;;;;;27.00;62.61;100203.22;1651806;85;21263;-54
2022/08/01 13:26:09;;;;;;;7.62;5.25;;;;;;;27.03;62.34;100201.79;1643915;86;21236;-53
2022/08/01 13:29:20;;;;;;;7.72;5.72;;;;;;;27.02;62.21;100205.73;1651946;86;21602;-53
2022/08/01 13:32:30;;;;;;;9.98;5.42;;;;;;;27.07;62.21;100193.05;1654119;86;21634;-54
2022/08/01 13:35:36;;;;;;;9.98;5.08;;;;;;;27.07;62.04;100195.30;1655626;86;21603;-54
2022/08/01 13:42:05;;;;;;;9.65;5.47;;;;;;;27.06;61.99;100189.41;1652321;86;21737;-54
2022/08/01 13:45:13;;;;;;;11.15;6.10;;;;;;;27.06;61.93;100185.20;1652740;86;21216;-55
2022/08/01 13:48:24;;;;;;;7.17;5.17;;;;;;;27.06;61.93;100183.80;1654271;86;21283;-54
2022/08/01 13:51:31;;;;;;;6.55;5.17;;;;;;;27.04;61.89;100180.42;1654311;86;21820;-54
2022/08/01 13:54:39;;;;;;;9.40;5.12;;;;;;;27.04;61.94;100179.02;1654552;86;21354;-54
2022/08/01 13:57:44;;;;;;;9.53;5.53;;;;;;;27.02;61.85;100175.64;1654325;86;21345;-55
2022/08/01 14:00:52;;;;;;;12.33;5.62;;;;;;;26.97;61.81;100178.50;1652765;86;21279;-57
2022/08/01 14:03:59;;;;;;;13.32;5.35;;;;;;;26.95;61.84;100179.91;1655544;86;21701;-57
2022/08/01 14:07:13;;;;;;;10.30;7.53;;;;;;;26.95;61.91;100173.73;1655433;86;21389;-55
2022/08/01 14:10:20;;;;;;;9.20;5.60;;;;;;;26.97;61.93;100175.70;1652640;85;21200;-54
2022/08/01 14:13:26;;;;;;;7.03;5.55;;;;;;;27.01;61.87;100164.70;1624330;88;21744;-55
2022/08/01 14:16:32;;;;;;;7.05;5.20;;;;;;;26.99;61.79;100158.55;1651434;86;21789;-55
2022/08/01 14:19:40;;;;;;;9.98;5.60;;;;;;;27.00;61.76;100156.00;1653599;86;21200;-57
2022/08/01 14:22:47;;;;;;;10.48;5.33;;;;;;;27.01;61.78;100148.68;1653058;86;21847;-57
2022/08/01 14:25:53;;;;;;;15.05;5.62;;;;;;;27.07;61.74;100145.27;1659709;85;21295;-58
2022/08/01 14:29:00;;;;;;;12.95;5.50;;;;;;;27.08;61.72;100129.55;1661600;86;21608;-56
2022/08/01 14:32:07;;;;;;;7.87;5.47;;;;;;;27.12;61.69;100130.63;1657917;86;21269;-56
2022/08/01 14:35:15;;;;;;;13.28;5.78;;;;;;;27.15;61.58;100131.45;1657600;86;21274;-56
2022/08/01 14:38:23;;;;;;;8.85;6.05;;;;;;;27.13;61.57;100127.27;1657900;86;21220;-56
2022/08/01 14:41:33;;;;;;;9.60;5.78;;;;;;;27.12;61.56;100119.39;1658353;86;21210;-58
2022/08/01 14:44:39;;;;;;;8.65;5.47;;;;;;;27.15;61.61;100113.18;1654929;86;21166;-56